Time;durP1;ratioP1;P1;durP2;ratioP2;P2;SDS_P1;SDS_P2;PMS_P1;PMS_P2;Temp;Humidity;BMP_temperature;BMP_pressure;BME280_temperature;BME280_humidity;BME280_pressure;Samples;Min_cycle;Max_cycle;Signal;HPM_P1;HPM_P2
2023/05/21 06:28:06;;;;;;;;;31.25;27.50;;;;;;;;6281041;22;46476;-70
2023/05/21 06:30:31;;;;;;;;;32.25;29.00;;;;;;;;6370845;22;46146;-71
2023/05/21 06:32:56;;;;;;;;;32.50;30.00;;;;;;;;6342631;22;45316;-71
2023/05/21 06:35:22;;;;;;;;;31.50;30.00;;;;;;;;6371993;22;45268;-71
2023/05/21 06:37:47;;;;;;;;;30.50;29.25;;;;;;;;6371805;22;45184;-71
2023/05/21 06:40:12;;;;;;;;;26.50;26.50;;;;;;;;6371942;22;46022;-73
2023/05/21 06:42:38;;;;;;;;;31.25;29.75;;;;;;;;6371511;22;45289;-72
2023/05/21 06:45:03;;;;;;;;;34.00;28.50;;;;;;;;6342897;22;45221;-72
2023/05/21 06:47:28;;;;;;;;;31.00;29.33;;;;;;;;6371111;22;45168;-73
2023/05/21 06:49:53;;;;;;;;;28.67;27.33;;;;;;;;6342362;22;46893;-73
2023/05/21 06:52:19;;;;;;;;;29.50;29.50;;;;;;;;6371921;22;45276;-73
2023/05/21 06:54:44;;;;;;;;;33.00;30.00;;;;;;;;6371051;22;45348;-72
2023/05/21 06:57:09;;;;;;;;;33.00;29.00;;;;;;;;6369876;22;45161;-72
2023/05/21 06:59:35;;;;;;;;;34.33;29.33;;;;;;;;6371267;22;45273;-72
2023/05/21 07:02:00;;;;;;;;;29.33;25.67;;;;;;;;6371346;22;45277;-72
2023/05/21 07:04:25;;;;;;;;;26.00;25.67;;;;;;;;6372118;22;45293;-71
2023/05/21 07:06:51;;;;;;;;;27.33;23.67;;;;;;;;6371091;22;45292;-72
2023/05/21 07:09:17;;;;;;;;;33.00;29.33;;;;;;;;6342966;22;45881;-72
2023/05/21 07:11:43;;;;;;;;;26.67;24.67;;;;;;;;6343017;22;45201;-72
2023/05/21 07:14:08;;;;;;;;;30.00;28.33;;;;;;;;6371594;22;45237;-71
2023/05/21 07:16:33;;;;;;;;;19.00;19.00;;;;;;;;6371807;22;45124;-72
2023/05/21 07:18:58;;;;;;;;;28.33;25.00;;;;;;;;6371177;22;45149;-72
2023/05/21 07:21:23;;;;;;;;;33.00;27.33;;;;;;;;6372028;22;45567;-72
2023/05/21 07:23:49;;;;;;;;;30.67;26.33;;;;;;;;6369621;22;45206;-72
2023/05/21 07:26:14;;;;;;;;;23.00;22.33;;;;;;;;6371240;22;45392;-72
2023/05/21 07:28:39;;;;;;;;;27.67;25.00;;;;;;;;6370184;22;46027;-72
2023/05/21 07:31:04;;;;;;;;;32.00;28.00;;;;;;;;6371868;22;45199;-72
2023/05/21 07:33:30;;;;;;;;;24.67;22.67;;;;;;;;6342069;22;45339;-72
2023/05/21 07:35:55;;;;;;;;;27.33;26.00;;;;;;;;6370428;22;45215;-72
2023/05/21 07:38:20;;;;;;;;;25.00;24.33;;;;;;;;6342193;22;46867;-72
2023/05/21 07:40:45;;;;;;;;;26.00;22.67;;;;;;;;6371832;22;45393;-73
2023/05/21 07:43:11;;;;;;;;;32.67;28.00;;;;;;;;6342617;22;45513;-72
2023/05/21 07:45:36;;;;;;;;;23.33;20.67;;;;;;;;6371609;22;45261;-72
2023/05/21 07:48:01;;;;;;;;;28.33;28.33;;;;;;;;6342836;22;46064;-72
2023/05/21 07:50:26;;;;;;;;;27.33;24.67;;;;;;;;6370959;22;45352;-72
2023/05/21 07:52:52;;;;;;;;;26.00;23.67;;;;;;;;6342842;22;45374;-72
2023/05/21 07:55:17;;;;;;;;;31.00;23.67;;;;;;;;6370819;22;45159;-74
2023/05/21 07:57:44;;;;;;;;;24.33;23.00;;;;;;;;6369393;22;45244;-73
2023/05/21 08:00:12;;;;;;;;;22.33;21.00;;;;;;;;6371846;22;45293;-73
2023/05/21 08:02:38;;;;;;;;;17.67;17.33;;;;;;;;6369605;22;45269;-73
2023/05/21 08:05:03;;;;;;;;;22.33;18.33;;;;;;;;6371457;22;45168;-73
2023/05/21 08:07:28;;;;;;;;;24.33;22.33;;;;;;;;6371224;22;46025;-73
2023/05/21 08:09:53;;;;;;;;;23.33;22.67;;;;;;;;6371457;22;45511;-73
2023/05/21 08:12:19;;;;;;;;;21.67;20.67;;;;;;;;6341533;22;45550;-72
2023/05/21 08:14:44;;;;;;;;;21.00;18.00;;;;;;;;6371374;22;45260;-73
2023/05/21 08:17:10;;;;;;;;;21.00;18.33;;;;;;;;6366500;22;45379;-73
2023/05/21 08:19:35;;;;;;;;;17.67;17.67;;;;;;;;6369769;22;45391;-75
2023/05/21 08:22:00;;;;;;;;;15.67;15.00;;;;;;;;6370584;22;45298;-74
2023/05/21 08:24:26;;;;;;;;;18.67;15.00;;;;;;;;6369651;22;45331;-73
2023/05/21 08:26:51;;;;;;;;;18.00;16.67;;;;;;;;6369803;22;45567;-75
2023/05/21 08:29:16;;;;;;;;;16.33;16.00;;;;;;;;6368394;22;45366;-74
2023/05/21 08:31:41;;;;;;;;;17.67;17.67;;;;;;;;6341973;22;45353;-75
2023/05/21 08:34:07;;;;;;;;;21.33;18.00;;;;;;;;6370782;22;45224;-74
2023/05/21 08:36:32;;;;;;;;;13.67;13.67;;;;;;;;6341539;22;46825;-74
2023/05/21 08:38:57;;;;;;;;;15.67;13.00;;;;;;;;6370118;22;45235;-74
2023/05/21 08:41:22;;;;;;;;;17.00;14.00;;;;;;;;6342269;22;45276;-74
2023/05/21 08:43:49;;;;;;;;;16.00;14.33;;;;;;;;6370087;22;45219;-74
2023/05/21 08:46:15;;;;;;;;;17.00;11.67;;;;;;;;6370347;22;45401;-73
2023/05/21 08:48:41;;;;;;;;;12.00;12.00;;;;;;;;6370882;22;45244;-74
2023/05/21 08:51:06;;;;;;;;;16.33;14.67;;;;;;;;6371406;22;45489;-74
2023/05/21 08:53:33;;;;;;;;;12.00;12.00;;;;;;;;6370435;22;45546;-74
2023/05/21 08:55:58;;;;;;;;;14.00;12.67;;;;;;;;6370536;22;45231;-73
2023/05/21 08:58:24;;;;;;;;;12.67;10.33;;;;;;;;6341526;22;45186;-74
2023/05/21 09:00:49;;;;;;;;;13.33;10.33;;;;;;;;6342042;22;45351;-73
2023/05/21 09:03:15;;;;;;;;;15.00;14.00;;;;;;;;6371042;22;45202;-74
2023/05/21 09:05:40;;;;;;;;;14.67;14.00;;;;;;;;6370547;22;45289;-72
2023/05/21 09:08:11;;;;;;;;;11.33;11.33;;;;;;;;6341868;22;45290;-72
2023/05/21 09:10:45;;;;;;;;;11.33;11.00;;;;;;;;6371170;22;45194;-73
2023/05/21 09:13:11;;;;;;;;;12.67;10.33;;;;;;;;6369959;22;45249;-75
2023/05/21 09:15:36;;;;;;;;;9.00;8.00;;;;;;;;6368744;22;46351;-73
2023/05/21 09:18:01;;;;;;;;;14.75;13.75;;;;;;;;6370369;22;45253;-71
2023/05/21 09:20:27;;;;;;;;;14.00;14.00;;;;;;;;6370967;22;45260;-72
2023/05/21 09:22:52;;;;;;;;;12.25;11.00;;;;;;;;6342379;22;45117;-72
2023/05/21 09:25:22;;;;;;;;;13.00;12.00;;;;;;;;6370793;22;45948;-73
2023/05/21 09:27:47;;;;;;;;;12.50;11.50;;;;;;;;6369007;22;45653;-72
2023/05/21 09:30:13;;;;;;;;;15.50;14.50;;;;;;;;6371911;22;45309;-75
2023/05/21 09:32:39;;;;;;;;;12.50;12.50;;;;;;;;6371950;22;45438;-73
2023/05/21 09:35:08;;;;;;;;;15.50;12.75;;;;;;;;6372185;22;45165;-72
2023/05/21 09:37:42;;;;;;;;;16.25;15.00;;;;;;;;6371471;22;45143;-74
2023/05/21 09:40:11;;;;;;;;;14.00;13.25;;;;;;;;6371243;22;45101;-73
2023/05/21 09:42:39;;;;;;;;;18.33;16.33;;;;;;;;6371287;22;45329;-73
2023/05/21 09:45:05;;;;;;;;;15.50;15.50;;;;;;;;6372155;22;45941;-72
2023/05/21 09:47:30;;;;;;;;;17.50;14.75;;;;;;;;6371688;22;45234;-71
2023/05/21 09:49:59;;;;;;;;;17.25;14.50;;;;;;;;6372468;22;45252;-72
2023/05/21 09:52:29;;;;;;;;;17.50;17.00;;;;;;;;6343103;22;47320;-72
2023/05/21 09:54:54;;;;;;;;;15.00;13.00;;;;;;;;6371147;22;46107;-74
2023/05/21 09:57:23;;;;;;;;;18.00;14.00;;;;;;;;6371022;22;45273;-73
2023/05/21 09:59:49;;;;;;;;;15.25;14.50;;;;;;;;6371752;22;45198;-73
2023/05/21 10:02:16;;;;;;;;;16.00;16.00;;;;;;;;6371691;22;45265;-72
2023/05/21 10:04:43;;;;;;;;;14.25;13.75;;;;;;;;6371464;22;46276;-73
2023/05/21 10:07:08;;;;;;;;;17.25;17.00;;;;;;;;6342702;22;45220;-73
2023/05/21 10:09:33;;;;;;;;;12.00;12.00;;;;;;;;6371636;22;45425;-72
2023/05/21 10:11:59;;;;;;;;;18.50;16.50;;;;;;;;6371432;22;45389;-73
2023/05/21 10:14:26;;;;;;;;;15.50;15.50;;;;;;;;6371118;22;45534;-72
2023/05/21 10:16:53;;;;;;;;;18.50;18.25;;;;;;;;6371345;22;45218;-72
2023/05/21 10:19:18;;;;;;;;;17.25;17.25;;;;;;;;6371604;22;45241;-73
2023/05/21 10:21:44;;;;;;;;;17.50;17.50;;;;;;;;6343734;22;46986;-73
2023/05/21 10:24:10;;;;;;;;;19.25;19.25;;;;;;;;6371255;22;45312;-73
2023/05/21 10:26:35;;;;;;;;;30.67;27.33;;;;;;;;6372833;22;45194;-74
2023/05/21 10:29:01;;;;;;;;;38.00;32.33;;;;;;;;6371593;22;45342;-73
2023/05/21 10:31:29;;;;;;;;;33.67;28.00;;;;;;;;6372083;22;45309;-72
2023/05/21 10:33:55;;;;;;;;;30.67;27.33;;;;;;;;6371919;22;46199;-74
2023/05/21 10:36:20;;;;;;;;;20.25;20.25;;;;;;;;6372152;22;45215;-73
2023/05/21 10:38:46;;;;;;;;;16.50;16.00;;;;;;;;6342090;22;45203;-72
2023/05/21 10:41:12;;;;;;;;;19.25;18.25;;;;;;;;6371543;22;45404;-73
2023/05/21 10:43:38;;;;;;;;;19.25;18.75;;;;;;;;6340821;22;46660;-73
2023/05/21 10:46:12;;;;;;;;;16.00;16.00;;;;;;;;6371370;22;45167;-72
2023/05/21 10:48:37;;;;;;;;;17.00;17.00;;;;;;;;6371566;22;45218;-72
2023/05/21 10:51:14;;;;;;;;;22.00;18.50;;;;;;;;6372078;22;45183;-72
2023/05/21 10:53:58;;;;;;;;;19.00;17.75;;;;;;;;6342085;22;47298;-72
2023/05/21 10:56:27;;;;;;;;;14.25;14.25;;;;;;;;6371290;22;45246;-72
2023/05/21 10:59:12;;;;;;;;;15.75;15.75;;;;;;;;6371270;22;45351;-73
2023/05/21 11:01:39;;;;;;;;;16.25;16.25;;;;;;;;6371810;22;45274;-73
2023/05/21 11:04:05;;;;;;;;;19.75;18.25;;;;;;;;6371485;22;45356;-72
2023/05/21 11:06:30;;;;;;;;;19.00;16.25;;;;;;;;6343577;22;45632;-74
2023/05/21 11:08:55;;;;;;;;;18.50;15.75;;;;;;;;6371698;22;45206;-73
2023/05/21 11:11:45;;;;;;;;;19.25;17.50;;;;;;;;6343366;22;46026;-72
2023/05/21 11:14:25;;;;;;;;;24.00;23.50;;;;;;;;6370901;22;45242;-72
2023/05/21 11:16:50;;;;;;;;;23.00;22.00;;;;;;;;6342381;22;45172;-73
2023/05/21 11:19:16;;;;;;;;;16.00;16.00;;;;;;;;6372090;22;45279;-72
2023/05/21 11:21:41;;;;;;;;;17.50;17.25;;;;;;;;6371783;22;45416;-74
2023/05/21 11:24:07;;;;;;;;;16.50;15.75;;;;;;;;6342791;22;46020;-72
2023/05/21 11:26:47;;;;;;;;;19.00;18.00;;;;;;;;6371984;22;45210;-72
2023/05/21 11:29:13;;;;;;;;;17.25;16.25;;;;;;;;6342268;22;45223;-73
2023/05/21 11:31:43;;;;;;;;;14.75;14.00;;;;;;;;6342638;22;45369;-72
2023/05/21 11:34:17;;;;;;;;;15.25;15.25;;;;;;;;6371597;22;46549;-72
2023/05/21 11:36:44;;;;;;;;;18.75;14.50;;;;;;;;6371647;22;45230;-72
2023/05/21 11:39:14;;;;;;;;;18.00;16.00;;;;;;;;6371990;22;45186;-72
2023/05/21 11:41:52;;;;;;;;;14.75;13.75;;;;;;;;6371126;22;45819;-72
2023/05/21 11:44:17;;;;;;;;;17.00;13.75;;;;;;;;6371124;22;46394;-72
2023/05/21 11:46:43;;;;;;;;;15.25;14.25;;;;;;;;6371981;22;45206;-72
2023/05/21 11:49:08;;;;;;;;;15.25;15.25;;;;;;;;6371627;22;45199;-72
2023/05/21 11:51:34;;;;;;;;;14.75;14.75;;;;;;;;6371169;22;45194;-72
2023/05/21 11:54:00;;;;;;;;;16.50;15.50;;;;;;;;6368867;22;45357;-73
2023/05/21 11:56:25;;;;;;;;;15.25;15.25;;;;;;;;6372677;22;45206;-72
2023/05/21 11:58:53;;;;;;;;;22.50;22.25;;;;;;;;6371096;22;45302;-73
2023/05/21 12:01:22;;;;;;;;;18.00;18.00;;;;;;;;6371243;22;45342;-72
2023/05/21 12:03:48;;;;;;;;;17.50;17.50;;;;;;;;6371222;22;46116;-74
2023/05/21 12:06:13;;;;;;;;;14.75;14.00;;;;;;;;6371839;22;45148;-72
2023/05/21 12:08:38;;;;;;;;;15.25;14.00;;;;;;;;6371785;22;45326;-72
2023/05/21 12:11:03;;;;;;;;;11.00;10.00;;;;;;;;6371102;22;45094;-72
2023/05/21 12:13:28;;;;;;;;;14.25;14.25;;;;;;;;6370678;22;45454;-72
2023/05/21 12:15:54;;;;;;;;;9.00;9.00;;;;;;;;6371360;22;45283;-72
2023/05/21 12:18:19;;;;;;;;;12.25;12.25;;;;;;;;6371671;22;45437;-72
2023/05/21 12:20:45;;;;;;;;;15.50;15.50;;;;;;;;6371232;22;45456;-72
2023/05/21 12:23:22;;;;;;;;;14.25;13.00;;;;;;;;6371196;22;46250;-71
2023/05/21 12:25:47;;;;;;;;;11.60;11.00;;;;;;;;6371289;22;45530;-72
2023/05/21 12:28:13;;;;;;;;;10.50;10.50;;;;;;;;6370161;22;45321;-73
2023/05/21 12:30:38;;;;;;;;;16.50;14.00;;;;;;;;6371296;22;45281;-71
2023/05/21 12:33:04;;;;;;;;;15.00;12.75;;;;;;;;6371102;22;45351;-73
2023/05/21 12:35:30;;;;;;;;;10.00;10.00;;;;;;;;6371060;22;45325;-73
2023/05/21 12:37:55;;;;;;;;;14.00;13.25;;;;;;;;6371086;22;45207;-74
2023/05/21 12:40:21;;;;;;;;;10.25;9.50;;;;;;;;6342397;22;45283;-73
2023/05/21 12:42:46;;;;;;;;;11.00;10.25;;;;;;;;6370574;22;45250;-75
2023/05/21 12:45:12;;;;;;;;;16.00;14.75;;;;;;;;6342402;22;45297;-74
2023/05/21 12:47:37;;;;;;;;;15.75;14.00;;;;;;;;6370473;22;45359;-75
2023/05/21 12:50:03;;;;;;;;;14.00;13.00;;;;;;;;6371022;22;45426;-74
2023/05/21 12:52:31;;;;;;;;;13.00;12.00;;;;;;;;6370541;22;47542;-74
2023/05/21 12:54:57;;;;;;;;;12.40;12.40;;;;;;;;6370923;22;45307;-74
2023/05/21 12:57:27;;;;;;;;;16.00;14.25;;;;;;;;6370333;22;45230;-74
2023/05/21 12:59:57;;;;;;;;;11.75;11.75;;;;;;;;6370060;22;45717;-74
2023/05/21 13:02:24;;;;;;;;;16.40;13.80;;;;;;;;6370545;22;45253;-74
2023/05/21 13:04:53;;;;;;;;;14.00;13.80;;;;;;;;6317179;22;45237;-74
2023/05/21 13:07:18;;;;;;;;;16.25;14.50;;;;;;;;6372854;22;45168;-74
2023/05/21 13:09:44;;;;;;;;;15.75;15.75;;;;;;;;6372440;22;45393;-76
2023/05/21 13:12:10;;;;;;;;;16.00;14.00;;;;;;;;6371885;22;45141;-74
2023/05/21 13:14:35;;;;;;;;;16.75;15.75;;;;;;;;6336944;22;45277;-74
2023/05/21 13:17:00;;;;;;;;;15.50;13.25;;;;;;;;6371602;22;45344;-75
2023/05/21 13:19:25;;;;;;;;;16.75;16.50;;;;;;;;6370322;22;45512;-75
2023/05/21 13:21:50;;;;;;;;;12.50;12.50;;;;;;;;6371785;22;46498;-74
2023/05/21 13:24:16;;;;;;;;;16.25;16.25;;;;;;;;6371825;22;45214;-75
2023/05/21 13:26:41;;;;;;;;;16.00;14.00;;;;;;;;6372491;22;45361;-75
2023/05/21 13:29:06;;;;;;;;;16.00;15.00;;;;;;;;6342211;22;45480;-76
2023/05/21 13:31:31;;;;;;;;;14.50;12.50;;;;;;;;6371919;22;45245;-77
2023/05/21 13:33:56;;;;;;;;;15.75;14.25;;;;;;;;6343007;22;45305;-75
2023/05/21 13:36:22;;;;;;;;;17.00;14.75;;;;;;;;6372364;22;45202;-76
2023/05/21 13:38:47;;;;;;;;;13.25;13.25;;;;;;;;6371520;22;45265;-75
2023/05/21 13:41:13;;;;;;;;;17.00;15.50;;;;;;;;6343351;22;45417;-75
2023/05/21 13:43:41;;;;;;;;;15.25;15.25;;;;;;;;6370926;22;45273;-76
2023/05/21 13:46:06;;;;;;;;;13.25;13.25;;;;;;;;6343314;22;45222;-78
2023/05/21 13:48:31;;;;;;;;;16.00;14.75;;;;;;;;6367365;22;45187;-76
2023/05/21 13:50:56;;;;;;;;;13.25;13.25;;;;;;;;6371095;22;45197;-74
2023/05/21 13:53:22;;;;;;;;;14.00;14.00;;;;;;;;6370610;22;45285;-77
2023/05/21 13:55:47;;;;;;;;;13.00;12.75;;;;;;;;6370680;22;45104;-74
2023/05/21 13:58:12;;;;;;;;;12.25;11.75;;;;;;;;6369880;22;45507;-76
2023/05/21 14:00:39;;;;;;;;;15.50;14.75;;;;;;;;6372351;22;45485;-74
2023/05/21 14:03:06;;;;;;;;;15.40;13.60;;;;;;;;6371740;22;45181;-76
2023/05/21 14:05:31;;;;;;;;;13.80;12.80;;;;;;;;6371484;22;45420;-75
2023/05/21 14:07:56;;;;;;;;;15.25;15.25;;;;;;;;6371425;22;45595;-77
2023/05/21 14:10:21;;;;;;;;;12.50;10.75;;;;;;;;6371244;22;45456;-77
2023/05/21 14:12:47;;;;;;;;;14.75;13.50;;;;;;;;6371243;22;45347;-79
2023/05/21 14:15:12;;;;;;;;;14.00;13.00;;;;;;;;6371716;22;45302;-76
2023/05/21 14:17:39;;;;;;;;;10.75;10.75;;;;;;;;6342176;22;45841;-76
2023/05/21 14:20:05;;;;;;;;;15.25;14.25;;;;;;;;6343417;22;45763;-78
2023/05/21 14:22:30;;;;;;;;;15.00;15.00;;;;;;;;6371841;22;45227;-79
2023/05/21 14:24:55;;;;;;;;;14.25;13.00;;;;;;;;6372126;22;45303;-75
2023/05/21 14:27:20;;;;;;;;;14.50;14.50;;;;;;;;6371188;22;45664;-73
2023/05/21 14:29:46;;;;;;;;;13.00;11.75;;;;;;;;6371151;22;45570;-74
2023/05/21 14:32:11;;;;;;;;;13.75;13.75;;;;;;;;6371798;22;45279;-77
2023/05/21 14:34:37;;;;;;;;;13.50;13.50;;;;;;;;6372028;22;45235;-78
2023/05/21 14:37:02;;;;;;;;;15.00;14.25;;;;;;;;6371392;22;45250;-77
2023/05/21 14:39:27;;;;;;;;;12.75;12.75;;;;;;;;6371120;22;45230;-75
2023/05/21 14:41:53;;;;;;;;;14.50;14.25;;;;;;;;6371390;22;45198;-77
2023/05/21 14:44:18;;;;;;;;;12.50;10.00;;;;;;;;6371836;22;45225;-74
2023/05/21 14:46:44;;;;;;;;;12.00;12.00;;;;;;;;6343884;22;45322;-75
2023/05/21 14:49:10;;;;;;;;;10.50;10.00;;;;;;;;6342863;22;46746;-77
2023/05/21 14:51:35;;;;;;;;;13.75;13.75;;;;;;;;6370868;22;45226;-76
2023/05/21 14:54:01;;;;;;;;;12.50;12.50;;;;;;;;6343029;22;45497;-78
2023/05/21 14:56:26;;;;;;;;;12.50;12.50;;;;;;;;6372281;22;45229;-77
2023/05/21 14:58:52;;;;;;;;;14.50;14.00;;;;;;;;6371360;22;46043;-77
2023/05/21 15:01:17;;;;;;;;;14.50;14.00;;;;;;;;6372090;22;45216;-77
2023/05/21 15:03:42;;;;;;;;;15.50;13.50;;;;;;;;6343081;22;45281;-76
2023/05/21 15:06:07;;;;;;;;;16.00;14.25;;;;;;;;6342530;22;45290;-74
2023/05/21 15:08:33;;;;;;;;;14.00;13.75;;;;;;;;6342028;22;47778;-76
2023/05/21 15:10:58;;;;;;;;;11.75;11.75;;;;;;;;6342857;22;45370;-76
2023/05/21 15:13:23;;;;;;;;;14.50;14.50;;;;;;;;6342215;22;45301;-77
2023/05/21 15:15:48;;;;;;;;;13.75;13.00;;;;;;;;6369504;22;45308;-76
2023/05/21 15:18:14;;;;;;;;;13.00;11.50;;;;;;;;6342682;22;46317;-77
2023/05/21 15:20:40;;;;;;;;;13.50;13.25;;;;;;;;6343184;22;45420;-76
2023/05/21 15:23:06;;;;;;;;;16.50;15.75;;;;;;;;6371894;22;45208;-76
2023/05/21 15:25:31;;;;;;;;;15.50;14.25;;;;;;;;6343051;22;46868;-76
2023/05/21 15:27:57;;;;;;;;;13.50;11.75;;;;;;;;6369204;22;45465;-76
2023/05/21 15:30:24;;;;;;;;;16.25;15.25;;;;;;;;6371901;22;45214;-77
2023/05/21 15:32:49;;;;;;;;;14.00;14.00;;;;;;;;6343444;22;45208;-74
2023/05/21 15:35:14;;;;;;;;;16.50;16.50;;;;;;;;6371370;22;45444;-74
2023/05/21 15:37:40;;;;;;;;;16.75;15.25;;;;;;;;6370653;22;45256;-73
2023/05/21 15:40:07;;;;;;;;;12.25;12.00;;;;;;;;6343214;22;45588;-75
2023/05/21 15:42:32;;;;;;;;;19.00;17.25;;;;;;;;6371411;22;45312;-74
2023/05/21 15:44:58;;;;;;;;;19.25;17.25;;;;;;;;6343003;22;45702;-74
2023/05/21 15:47:23;;;;;;;;;13.25;13.25;;;;;;;;6341135;22;47195;-75
2023/05/21 15:49:48;;;;;;;;;14.75;14.75;;;;;;;;6370913;22;45277;-74
2023/05/21 15:52:13;;;;;;;;;15.00;15.00;;;;;;;;6371623;22;45398;-75
2023/05/21 15:54:38;;;;;;;;;17.00;17.00;;;;;;;;6371226;22;45296;-74
2023/05/21 15:57:04;;;;;;;;;18.00;15.00;;;;;;;;6370684;22;46300;-74
2023/05/21 15:59:29;;;;;;;;;13.25;13.00;;;;;;;;6342604;22;45236;-74
2023/05/21 16:01:55;;;;;;;;;14.50;14.50;;;;;;;;6342531;22;45309;-77
2023/05/21 16:04:20;;;;;;;;;16.00;16.00;;;;;;;;6341154;22;45599;-77
2023/05/21 16:06:46;;;;;;;;;15.25;15.25;;;;;;;;6371068;22;45242;-76
2023/05/21 16:09:11;;;;;;;;;16.00;14.75;;;;;;;;6371141;22;45205;-75
2023/05/21 16:11:36;;;;;;;;;12.00;12.00;;;;;;;;6371512;22;45378;-75
2023/05/21 16:14:02;;;;;;;;;15.50;15.00;;;;;;;;6371284;22;45701;-77
2023/05/21 16:16:27;;;;;;;;;16.75;15.00;;;;;;;;6342281;22;47858;-74
2023/05/21 16:18:52;;;;;;;;;16.00;15.25;;;;;;;;6371009;22;45225;-73
2023/05/21 16:21:17;;;;;;;;;18.50;17.25;;;;;;;;6370091;22;45622;-74
2023/05/21 16:23:43;;;;;;;;;16.00;16.00;;;;;;;;6371102;22;45248;-73
2023/05/21 16:26:08;;;;;;;;;14.75;14.75;;;;;;;;6371619;22;45209;-73
2023/05/21 16:28:34;;;;;;;;;19.00;18.00;;;;;;;;6369975;22;45247;-74
2023/05/21 16:30:59;;;;;;;;;16.25;15.00;;;;;;;;6341945;22;45201;-75
2023/05/21 16:33:24;;;;;;;;;17.75;16.75;;;;;;;;6341496;22;46238;-75
2023/05/21 16:35:50;;;;;;;;;17.50;17.50;;;;;;;;6371005;22;46192;-74
2023/05/21 16:38:15;;;;;;;;;18.00;17.50;;;;;;;;6371386;22;45251;-75
2023/05/21 16:40:40;;;;;;;;;17.33;17.33;;;;;;;;6374788;22;45451;-75
2023/05/21 16:43:07;;;;;;;;;20.00;20.00;;;;;;;;6373350;22;45386;-75
2023/05/21 16:45:42;;;;;;;;;17.50;16.75;;;;;;;;6374189;22;46256;-75
2023/05/21 16:48:07;;;;;;;;;20.00;17.00;;;;;;;;6374381;22;45360;-75
2023/05/21 16:50:33;;;;;;;;;17.33;17.33;;;;;;;;6374981;22;45241;-75
2023/05/21 16:53:01;;;;;;;;;22.50;21.00;;;;;;;;6373642;22;45431;-74
2023/05/21 16:55:26;;;;;;;;;20.00;20.00;;;;;;;;6374231;22;45572;-75
2023/05/21 16:57:51;;;;;;;;;21.67;19.67;;;;;;;;6373633;22;45441;-74
2023/05/21 17:00:16;;;;;;;;;18.00;18.00;;;;;;;;6345772;22;45270;-75
2023/05/21 17:02:42;;;;;;;;;12.33;10.67;;;;;;;;6345201;22;45766;-75
2023/05/21 17:05:07;;;;;;;;;24.33;22.67;;;;;;;;6374009;22;46228;-75
2023/05/21 17:07:32;;;;;;;;;26.33;23.00;;;;;;;;6373094;22;45259;-75
2023/05/21 17:09:57;;;;;;;;;19.67;19.67;;;;;;;;6374532;22;45158;-76
2023/05/21 17:12:22;;;;;;;;;24.00;23.00;;;;;;;;6374049;22;45231;-74
2023/05/21 17:14:48;;;;;;;;;26.67;25.67;;;;;;;;6344782;22;45315;-77
2023/05/21 17:17:13;;;;;;;;;26.67;23.00;;;;;;;;6373725;22;45223;-75
2023/05/21 17:19:38;;;;;;;;;22.33;20.67;;;;;;;;6374065;22;45645;-73
2023/05/21 17:22:03;;;;;;;;;20.67;20.67;;;;;;;;6344508;22;45656;-73
2023/05/21 17:24:28;;;;;;;;;24.67;23.33;;;;;;;;6345562;22;46265;-74
2023/05/21 17:26:54;;;;;;;;;25.67;25.67;;;;;;;;6345350;22;45291;-75
2023/05/21 17:29:20;;;;;;;;;30.67;27.33;;;;;;;;6373671;22;45141;-74
2023/05/21 17:31:45;;;;;;;;;25.33;25.33;;;;;;;;6374525;22;45370;-75
2023/05/21 17:34:11;;;;;;;;;25.67;24.67;;;;;;;;6345281;22;46054;-74
2023/05/21 17:36:36;;;;;;;;;30.67;27.00;;;;;;;;6374412;22;45141;-75
2023/05/21 17:39:01;;;;;;;;;28.00;25.00;;;;;;;;6345329;22;45220;-75
2023/05/21 17:41:27;;;;;;;;;27.67;27.67;;;;;;;;6345937;22;45235;-75
2023/05/21 17:43:52;;;;;;;;;32.33;28.33;;;;;;;;6374612;22;46105;-73
2023/05/21 17:46:17;;;;;;;;;27.67;26.00;;;;;;;;6375517;22;45281;-76
2023/05/21 17:48:43;;;;;;;;;27.67;25.00;;;;;;;;6374421;22;45276;-75
2023/05/21 17:51:08;;;;;;;;;29.67;27.00;;;;;;;;6372293;22;45437;-75
2023/05/21 17:53:33;;;;;;;;;27.00;26.33;;;;;;;;6372229;22;45293;-74
2023/05/21 17:55:59;;;;;;;;;34.00;28.00;;;;;;;;6372784;22;45215;-75
2023/05/21 17:58:24;;;;;;;;;34.67;31.00;;;;;;;;6372174;22;45474;-73
2023/05/21 18:00:49;;;;;;;;;31.00;28.00;;;;;;;;6372124;22;45258;-75
2023/05/21 18:03:15;;;;;;;;;31.33;27.67;;;;;;;;6372110;22;45375;-76
2023/05/21 18:05:40;;;;;;;;;28.67;27.67;;;;;;;;6372559;22;45281;-76
2023/05/21 18:08:05;;;;;;;;;27.67;25.00;;;;;;;;6371954;22;45298;-76
2023/05/21 18:10:31;;;;;;;;;33.00;29.00;;;;;;;;6371323;22;45257;-75
2023/05/21 18:12:56;;;;;;;;;30.67;28.00;;;;;;;;6371925;22;45257;-77
2023/05/21 18:15:22;;;;;;;;;30.00;25.67;;;;;;;;6372244;22;45275;-74
2023/05/21 18:17:47;;;;;;;;;37.33;31.33;;;;;;;;6371846;22;45210;-76
2023/05/21 18:20:12;;;;;;;;;31.00;29.33;;;;;;;;6372429;22;45223;-76
2023/05/21 18:22:38;;;;;;;;;31.33;29.00;;;;;;;;6371491;22;46134;-76
2023/05/21 18:25:03;;;;;;;;;29.67;27.67;;;;;;;;6342967;22;45246;-74
2023/05/21 18:27:28;;;;;;;;;32.33;30.33;;;;;;;;6342718;22;45351;-76
2023/05/21 18:29:55;;;;;;;;;32.33;31.00;;;;;;;;6371864;22;45442;-79
2023/05/21 18:32:21;;;;;;;;;28.00;27.00;;;;;;;;6342335;22;47096;-75
2023/05/21 18:34:47;;;;;;;;;36.33;30.00;;;;;;;;6372305;22;45237;-76
2023/05/21 18:37:12;;;;;;;;;30.67;29.67;;;;;;;;6371974;22;45271;-75
2023/05/21 18:39:37;;;;;;;;;32.67;30.67;;;;;;;;6343654;22;45566;-75
2023/05/21 18:42:02;;;;;;;;;24.00;23.33;;;;;;;;6370028;22;45187;-77
2023/05/21 18:44:29;;;;;;;;;34.00;30.33;;;;;;;;6371950;22;45223;-73
2023/05/21 18:46:56;;;;;;;;;30.00;30.00;;;;;;;;6343925;22;45246;-74
2023/05/21 18:49:21;;;;;;;;;34.00;31.00;;;;;;;;6371695;22;45374;-73
2023/05/21 18:51:46;;;;;;;;;31.67;29.33;;;;;;;;6371872;22;45580;-74
2023/05/21 18:54:11;;;;;;;;;30.67;29.00;;;;;;;;6371541;22;45271;-75
2023/05/21 18:56:37;;;;;;;;;27.00;27.00;;;;;;;;6372168;22;45229;-75
2023/05/21 18:59:03;;;;;;;;;37.67;32.00;;;;;;;;6371427;22;45586;-74
2023/05/21 19:01:28;;;;;;;;;31.00;29.00;;;;;;;;6342577;22;45301;-74
2023/05/21 19:03:53;;;;;;;;;30.00;26.00;;;;;;;;6372265;22;45308;-75
2023/05/21 19:06:23;;;;;;;;;26.67;23.33;;;;;;;;6344021;22;45211;-75
2023/05/21 19:08:49;;;;;;;;;30.67;28.00;;;;;;;;6371859;22;45274;-76
2023/05/21 19:11:16;;;;;;;;;32.67;31.00;;;;;;;;6371983;22;45921;-75
2023/05/21 19:13:41;;;;;;;;;30.33;29.67;;;;;;;;6343306;22;45264;-75
2023/05/21 19:16:09;;;;;;;;;33.67;31.00;;;;;;;;6372642;22;45289;-75
2023/05/21 19:18:34;;;;;;;;;27.33;27.33;;;;;;;;6342949;22;46108;-75
2023/05/21 19:21:00;;;;;;;;;32.33;28.67;;;;;;;;6372265;22;46329;-76
2023/05/21 19:23:25;;;;;;;;;33.00;30.33;;;;;;;;6342623;22;45863;-75
2023/05/21 19:25:50;;;;;;;;;30.33;27.33;;;;;;;;6372860;22;45234;-75
2023/05/21 19:28:15;;;;;;;;;26.00;23.00;;;;;;;;6371386;22;45423;-73
2023/05/21 19:30:41;;;;;;;;;28.33;28.33;;;;;;;;6344006;22;46831;-74
2023/05/21 19:33:06;;;;;;;;;30.00;28.67;;;;;;;;6371815;22;45258;-74
2023/05/21 19:35:31;;;;;;;;;29.33;26.67;;;;;;;;6343751;22;45278;-73
2023/05/21 19:37:57;;;;;;;;;30.00;27.33;;;;;;;;6371660;22;45203;-74
2023/05/21 19:40:23;;;;;;;;;34.67;30.00;;;;;;;;6372038;22;45257;-75
2023/05/21 19:42:48;;;;;;;;;30.33;29.67;;;;;;;;6371323;22;45359;-75
2023/05/21 19:45:14;;;;;;;;;35.67;31.33;;;;;;;;6372635;22;45199;-75
2023/05/21 19:47:39;;;;;;;;;31.67;27.67;;;;;;;;6371798;22;45327;-74
2023/05/21 19:50:05;;;;;;;;;33.33;30.67;;;;;;;;6372103;22;45230;-74
2023/05/21 19:52:31;;;;;;;;;33.33;31.00;;;;;;;;6371479;22;45224;-73
2023/05/21 19:55:03;;;;;;;;;35.00;29.67;;;;;;;;6372252;22;45514;-74
2023/05/21 19:57:28;;;;;;;;;34.67;31.00;;;;;;;;6371336;22;45265;-74
2023/05/21 19:59:53;;;;;;;;;31.00;29.00;;;;;;;;6371905;22;46026;-73
2023/05/21 20:02:20;;;;;;;;;25.33;24.67;;;;;;;;6371544;22;45246;-73
2023/05/21 20:04:45;;;;;;;;;31.33;28.67;;;;;;;;6371987;22;45288;-75
2023/05/21 20:07:11;;;;;;;;;34.00;28.00;;;;;;;;6371653;22;45253;-74
2023/05/21 20:09:36;;;;;;;;;33.67;31.00;;;;;;;;6371668;22;46365;-73
2023/05/21 20:12:02;;;;;;;;;35.33;31.00;;;;;;;;6342671;22;45362;-73
2023/05/21 20:14:27;;;;;;;;;29.00;28.00;;;;;;;;6370918;22;45222;-73
2023/05/21 20:16:53;;;;;;;;;33.67;30.67;;;;;;;;6371966;22;45418;-72
2023/05/21 20:19:19;;;;;;;;;39.00;31.67;;;;;;;;6371070;22;45401;-75
2023/05/21 20:21:44;;;;;;;;;34.00;30.00;;;;;;;;6371970;22;45216;-75
2023/05/21 20:24:10;;;;;;;;;34.00;32.00;;;;;;;;6342828;22;45208;-75
2023/05/21 20:26:35;;;;;;;;;32.00;30.67;;;;;;;;6371377;22;45207;-74
2023/05/21 20:29:00;;;;;;;;;34.00;30.00;;;;;;;;6370519;22;45215;-74
2023/05/21 20:31:26;;;;;;;;;37.67;31.67;;;;;;;;6343067;22;45148;-74
2023/05/21 20:33:52;;;;;;;;;29.67;27.00;;;;;;;;6370046;22;45506;-74
2023/05/21 20:36:19;;;;;;;;;31.00;28.00;;;;;;;;6342915;22;45338;-74